sensor_id;sensor_type;location;lat;lon;timestamp;P1;durP1;ratioP1;P2;durP2;ratioP2
6642;SDS011;3357;48.050;7.800;2022-09-01T00:01:16;9.60;;;3.40;;
6642;SDS011;3357;48.050;7.800;2022-09-01T00:03:47;5.10;;;3.90;;
6642;SDS011;3357;48.050;7.800;2022-09-01T00:06:13;10.83;;;5.03;;
6642;SDS011;3357;48.050;7.800;2022-09-01T00:08:39;8.73;;;4.80;;
6642;SDS011;3357;48.050;7.800;2022-09-01T00:11:05;7.10;;;4.50;;
6642;SDS011;3357;48.050;7.800;2022-09-01T00:13:30;10.53;;;3.97;;
6642;SDS011;3357;48.050;7.800;2022-09-01T00:15:58;10.20;;;4.77;;
6642;SDS011;3357;48.050;7.800;2022-09-01T00:18:24;6.80;;;4.80;;
6642;SDS011;3357;48.050;7.800;2022-09-01T00:20:50;6.70;;;4.60;;
6642;SDS011;3357;48.050;7.800;2022-09-01T00:23:15;6.20;;;5.13;;
6642;SDS011;3357;48.050;7.800;2022-09-01T00:25:40;7.50;;;5.17;;
6642;SDS011;3357;48.050;7.800;2022-09-01T00:28:06;11.03;;;4.83;;
6642;SDS011;3357;48.050;7.800;2022-09-01T00:30:31;15.03;;;5.03;;
6642;SDS011;3357;48.050;7.800;2022-09-01T00:32:57;5.87;;;5.37;;
6642;SDS011;3357;48.050;7.800;2022-09-01T00:35:22;8.87;;;5.30;;
6642;SDS011;3357;48.050;7.800;2022-09-01T00:37:47;4.20;;;3.90;;
6642;SDS011;3357;48.050;7.800;2022-09-01T00:40:13;6.77;;;4.40;;
6642;SDS011;3357;48.050;7.800;2022-09-01T00:42:40;4.23;;;3.83;;
6642;SDS011;3357;48.050;7.800;2022-09-01T00:45:07;5.67;;;4.37;;
6642;SDS011;3357;48.050;7.800;2022-09-01T00:47:34;5.43;;;3.63;;
6642;SDS011;3357;48.050;7.800;2022-09-01T00:50:00;7.13;;;3.80;;
6642;SDS011;3357;48.050;7.800;2022-09-01T00:52:31;8.20;;;4.70;;
6642;SDS011;3357;48.050;7.800;2022-09-01T00:55:02;6.23;;;4.70;;
6642;SDS011;3357;48.050;7.800;2022-09-01T00:57:32;5.00;;;4.60;;
6642;SDS011;3357;48.050;7.800;2022-09-01T01:00:04;4.67;;;4.37;;
6642;SDS011;3357;48.050;7.800;2022-09-01T01:02:35;5.57;;;4.53;;
6642;SDS011;3357;48.050;7.800;2022-09-01T01:05:03;5.00;;;4.40;;
6642;SDS011;3357;48.050;7.800;2022-09-01T01:07:29;8.70;;;5.27;;
6642;SDS011;3357;48.050;7.800;2022-09-01T01:09:54;4.53;;;4.10;;
6642;SDS011;3357;48.050;7.800;2022-09-01T01:12:20;7.50;;;4.70;;
6642;SDS011;3357;48.050;7.800;2022-09-01T01:14:46;6.33;;;5.40;;
6642;SDS011;3357;48.050;7.800;2022-09-01T01:17:14;6.30;;;5.10;;
6642;SDS011;3357;48.050;7.800;2022-09-01T01:19:53;5.83;;;5.10;;
6642;SDS011;3357;48.050;7.800;2022-09-01T01:22:48;5.60;;;5.10;;
6642;SDS011;3357;48.050;7.800;2022-09-01T01:28:12;9.10;;;5.73;;
6642;SDS011;3357;48.050;7.800;2022-09-01T01:30:47;7.23;;;5.03;;
6642;SDS011;3357;48.050;7.800;2022-09-01T01:33:16;6.80;;;5.07;;
6642;SDS011;3357;48.050;7.800;2022-09-01T01:35:46;6.77;;;5.70;;
6642;SDS011;3357;48.050;7.800;2022-09-01T01:38:12;8.50;;;5.73;;
6642;SDS011;3357;48.050;7.800;2022-09-01T01:40:39;11.17;;;7.30;;
6642;SDS011;3357;48.050;7.800;2022-09-01T01:43:05;8.17;;;6.87;;
6642;SDS011;3357;48.050;7.800;2022-09-01T01:45:31;16.50;;;7.70;;
6642;SDS011;3357;48.050;7.800;2022-09-01T01:47:56;10.20;;;8.53;;
6642;SDS011;3357;48.050;7.800;2022-09-01T01:50:24;11.73;;;8.83;;
6642;SDS011;3357;48.050;7.800;2022-09-01T01:52:52;11.27;;;9.53;;
6642;SDS011;3357;48.050;7.800;2022-09-01T01:55:18;9.80;;;8.80;;
6642;SDS011;3357;48.050;7.800;2022-09-01T01:57:45;16.10;;;9.50;;
6642;SDS011;3357;48.050;7.800;2022-09-01T02:00:15;14.50;;;9.53;;
6642;SDS011;3357;48.050;7.800;2022-09-01T02:02:44;14.00;;;8.70;;
6642;SDS011;3357;48.050;7.800;2022-09-01T02:05:20;11.53;;;8.40;;
6642;SDS011;3357;48.050;7.800;2022-09-01T02:07:53;18.30;;;8.67;;
6642;SDS011;3357;48.050;7.800;2022-09-01T02:10:20;24.53;;;11.10;;
6642;SDS011;3357;48.050;7.800;2022-09-01T02:12:48;19.20;;;10.47;;
6642;SDS011;3357;48.050;7.800;2022-09-01T02:15:13;14.47;;;9.97;;
6642;SDS011;3357;48.050;7.800;2022-09-01T02:17:40;15.83;;;9.10;;
6642;SDS011;3357;48.050;7.800;2022-09-01T02:20:07;12.80;;;8.67;;
6642;SDS011;3357;48.050;7.800;2022-09-01T02:22:35;10.70;;;8.67;;
6642;SDS011;3357;48.050;7.800;2022-09-01T02:25:02;9.63;;;8.70;;
6642;SDS011;3357;48.050;7.800;2022-09-01T02:27:30;12.07;;;8.70;;
6642;SDS011;3357;48.050;7.800;2022-09-01T02:29:57;10.57;;;8.07;;
6642;SDS011;3357;48.050;7.800;2022-09-01T02:32:25;12.40;;;8.70;;
6642;SDS011;3357;48.050;7.800;2022-09-01T02:34:50;20.80;;;10.80;;
6642;SDS011;3357;48.050;7.800;2022-09-01T02:37:18;13.67;;;10.77;;
6642;SDS011;3357;48.050;7.800;2022-09-01T02:39:50;14.80;;;11.27;;
6642;SDS011;3357;48.050;7.800;2022-09-01T02:42:17;23.53;;;13.73;;
6642;SDS011;3357;48.050;7.800;2022-09-01T02:44:47;21.00;;;12.87;;
6642;SDS011;3357;48.050;7.800;2022-09-01T02:47:12;20.03;;;15.00;;
6642;SDS011;3357;48.050;7.800;2022-09-01T02:49:38;21.57;;;15.80;;
6642;SDS011;3357;48.050;7.800;2022-09-01T02:52:04;20.77;;;12.77;;
6642;SDS011;3357;48.050;7.800;2022-09-01T02:54:30;15.40;;;11.80;;
6642;SDS011;3357;48.050;7.800;2022-09-01T02:56:56;15.40;;;11.63;;
6642;SDS011;3357;48.050;7.800;2022-09-01T02:59:23;14.67;;;10.33;;
6642;SDS011;3357;48.050;7.800;2022-09-01T03:01:50;18.60;;;12.07;;
6642;SDS011;3357;48.050;7.800;2022-09-01T03:04:18;19.23;;;11.43;;
6642;SDS011;3357;48.050;7.800;2022-09-01T03:06:44;14.93;;;11.47;;
6642;SDS011;3357;48.050;7.800;2022-09-01T03:09:11;17.50;;;13.03;;
6642;SDS011;3357;48.050;7.800;2022-09-01T03:11:39;16.63;;;13.63;;
6642;SDS011;3357;48.050;7.800;2022-09-01T03:14:06;16.43;;;12.50;;
6642;SDS011;3357;48.050;7.800;2022-09-01T03:16:32;21.90;;;15.23;;
6642;SDS011;3357;48.050;7.800;2022-09-01T03:18:59;16.50;;;13.20;;
6642;SDS011;3357;48.050;7.800;2022-09-01T03:21:27;20.07;;;14.10;;
6642;SDS011;3357;48.050;7.800;2022-09-01T03:23:56;20.20;;;14.43;;
6642;SDS011;3357;48.050;7.800;2022-09-01T03:26:22;19.17;;;13.33;;
6642;SDS011;3357;48.050;7.800;2022-09-01T03:28:48;16.07;;;13.30;;
6642;SDS011;3357;48.050;7.800;2022-09-01T03:31:15;21.50;;;15.80;;
6642;SDS011;3357;48.050;7.800;2022-09-01T03:33:42;21.90;;;16.50;;
6642;SDS011;3357;48.050;7.800;2022-09-01T03:36:07;19.10;;;15.30;;
6642;SDS011;3357;48.050;7.800;2022-09-01T03:38:33;19.53;;;14.97;;
6642;SDS011;3357;48.050;7.800;2022-09-01T03:41:00;17.27;;;14.07;;
6642;SDS011;3357;48.050;7.800;2022-09-01T03:43:27;21.03;;;14.00;;
6642;SDS011;3357;48.050;7.800;2022-09-01T03:45:54;17.83;;;13.53;;
6642;SDS011;3357;48.050;7.800;2022-09-01T03:48:20;17.90;;;13.60;;
6642;SDS011;3357;48.050;7.800;2022-09-01T03:50:47;18.40;;;13.47;;
6642;SDS011;3357;48.050;7.800;2022-09-01T03:53:15;14.63;;;11.97;;
6642;SDS011;3357;48.050;7.800;2022-09-01T03:55:42;19.77;;;12.37;;
6642;SDS011;3357;48.050;7.800;2022-09-01T03:58:09;15.63;;;11.10;;
6642;SDS011;3357;48.050;7.800;2022-09-01T04:00:40;17.90;;;13.30;;
6642;SDS011;3357;48.050;7.800;2022-09-01T04:03:08;16.63;;;12.03;;
6642;SDS011;3357;48.050;7.800;2022-09-01T04:05:36;20.30;;;14.70;;
6642;SDS011;3357;48.050;7.800;2022-09-01T04:08:03;22.90;;;16.17;;
6642;SDS011;3357;48.050;7.800;2022-09-01T04:10:31;35.00;;;18.70;;
6642;SDS011;3357;48.050;7.800;2022-09-01T04:12:58;26.87;;;18.13;;
6642;SDS011;3357;48.050;7.800;2022-09-01T04:15:24;34.63;;;19.97;;
6642;SDS011;3357;48.050;7.800;2022-09-01T04:17:50;35.03;;;21.13;;
6642;SDS011;3357;48.050;7.800;2022-09-01T04:20:38;34.10;;;22.10;;
6642;SDS011;3357;48.050;7.800;2022-09-01T04:23:16;42.73;;;23.03;;
6642;SDS011;3357;48.050;7.800;2022-09-01T04:25:47;37.00;;;24.37;;
6642;SDS011;3357;48.050;7.800;2022-09-01T04:28:15;52.20;;;24.93;;
6642;SDS011;3357;48.050;7.800;2022-09-01T04:30:55;64.43;;;25.17;;
6642;SDS011;3357;48.050;7.800;2022-09-01T04:33:23;81.73;;;27.37;;
6642;SDS011;3357;48.050;7.800;2022-09-01T04:35:50;51.03;;;25.37;;
6642;SDS011;3357;48.050;7.800;2022-09-01T04:38:20;48.70;;;26.47;;
6642;SDS011;3357;48.050;7.800;2022-09-01T04:40:49;53.37;;;27.00;;
6642;SDS011;3357;48.050;7.800;2022-09-01T04:43:15;49.67;;;25.80;;
6642;SDS011;3357;48.050;7.800;2022-09-01T04:45:41;52.57;;;26.67;;
6642;SDS011;3357;48.050;7.800;2022-09-01T04:48:07;42.93;;;27.77;;
6642;SDS011;3357;48.050;7.800;2022-09-01T04:50:33;51.57;;;26.90;;
6642;SDS011;3357;48.050;7.800;2022-09-01T04:52:59;41.30;;;26.90;;
6642;SDS011;3357;48.050;7.800;2022-09-01T04:55:26;41.90;;;27.60;;
6642;SDS011;3357;48.050;7.800;2022-09-01T04:57:54;42.77;;;28.50;;
6642;SDS011;3357;48.050;7.800;2022-09-01T05:00:22;48.53;;;26.40;;
6642;SDS011;3357;48.050;7.800;2022-09-01T05:02:49;38.60;;;25.10;;
6642;SDS011;3357;48.050;7.800;2022-09-01T05:05:16;39.70;;;26.70;;
6642;SDS011;3357;48.050;7.800;2022-09-01T05:07:42;36.97;;;25.20;;
6642;SDS011;3357;48.050;7.800;2022-09-01T05:10:08;44.10;;;26.47;;
6642;SDS011;3357;48.050;7.800;2022-09-01T05:12:33;39.87;;;25.53;;
6642;SDS011;3357;48.050;7.800;2022-09-01T05:14:59;40.07;;;24.77;;
6642;SDS011;3357;48.050;7.800;2022-09-01T05:17:26;36.07;;;24.27;;
6642;SDS011;3357;48.050;7.800;2022-09-01T05:19:53;42.93;;;25.20;;
6642;SDS011;3357;48.050;7.800;2022-09-01T05:22:20;36.13;;;24.30;;
6642;SDS011;3357;48.050;7.800;2022-09-01T05:24:46;37.63;;;24.47;;
6642;SDS011;3357;48.050;7.800;2022-09-01T05:27:15;35.70;;;24.50;;
6642;SDS011;3357;48.050;7.800;2022-09-01T05:29:42;36.63;;;24.33;;
6642;SDS011;3357;48.050;7.800;2022-09-01T05:32:08;32.13;;;22.57;;
6642;SDS011;3357;48.050;7.800;2022-09-01T05:34:34;35.70;;;22.47;;
6642;SDS011;3357;48.050;7.800;2022-09-01T05:37:02;36.93;;;23.20;;
6642;SDS011;3357;48.050;7.800;2022-09-01T05:39:29;30.83;;;20.40;;
6642;SDS011;3357;48.050;7.800;2022-09-01T05:41:55;33.60;;;21.50;;
6642;SDS011;3357;48.050;7.800;2022-09-01T05:44:22;32.17;;;19.47;;
6642;SDS011;3357;48.050;7.800;2022-09-01T05:46:48;35.03;;;19.33;;
6642;SDS011;3357;48.050;7.800;2022-09-01T05:49:14;28.63;;;19.57;;
6642;SDS011;3357;48.050;7.800;2022-09-01T05:51:44;35.43;;;20.73;;
6642;SDS011;3357;48.050;7.800;2022-09-01T05:54:13;30.73;;;20.20;;
6642;SDS011;3357;48.050;7.800;2022-09-01T05:56:40;43.37;;;19.80;;
6642;SDS011;3357;48.050;7.800;2022-09-01T05:59:06;28.17;;;20.17;;
6642;SDS011;3357;48.050;7.800;2022-09-01T06:01:32;31.13;;;20.67;;
6642;SDS011;3357;48.050;7.800;2022-09-01T06:03:58;30.47;;;20.73;;
6642;SDS011;3357;48.050;7.800;2022-09-01T06:06:33;28.07;;;19.30;;
6642;SDS011;3357;48.050;7.800;2022-09-01T06:09:02;30.13;;;18.57;;
6642;SDS011;3357;48.050;7.800;2022-09-01T06:11:29;27.53;;;18.97;;
6642;SDS011;3357;48.050;7.800;2022-09-01T06:13:57;26.80;;;19.87;;
6642;SDS011;3357;48.050;7.800;2022-09-01T06:16:23;29.00;;;20.20;;
6642;SDS011;3357;48.050;7.800;2022-09-01T06:18:48;30.53;;;20.60;;
6642;SDS011;3357;48.050;7.800;2022-09-01T06:21:16;28.97;;;21.03;;
6642;SDS011;3357;48.050;7.800;2022-09-01T06:23:43;34.93;;;20.40;;
6642;SDS011;3357;48.050;7.800;2022-09-01T06:26:22;25.37;;;18.53;;
6642;SDS011;3357;48.050;7.800;2022-09-01T06:29:08;26.97;;;18.97;;
6642;SDS011;3357;48.050;7.800;2022-09-01T06:31:39;32.43;;;17.60;;
6642;SDS011;3357;48.050;7.800;2022-09-01T06:34:05;26.60;;;17.57;;
6642;SDS011;3357;48.050;7.800;2022-09-01T06:36:34;26.00;;;19.03;;
6642;SDS011;3357;48.050;7.800;2022-09-01T06:39:02;25.77;;;18.10;;
6642;SDS011;3357;48.050;7.800;2022-09-01T06:41:28;33.07;;;18.90;;
6642;SDS011;3357;48.050;7.800;2022-09-01T06:43:55;26.80;;;19.00;;
6642;SDS011;3357;48.050;7.800;2022-09-01T06:46:21;32.10;;;19.73;;
6642;SDS011;3357;48.050;7.800;2022-09-01T06:48:48;28.07;;;18.83;;
6642;SDS011;3357;48.050;7.800;2022-09-01T06:51:15;24.10;;;18.17;;
6642;SDS011;3357;48.050;7.800;2022-09-01T06:53:42;30.67;;;19.53;;
6642;SDS011;3357;48.050;7.800;2022-09-01T06:56:09;24.90;;;19.10;;
6642;SDS011;3357;48.050;7.800;2022-09-01T06:58:41;25.80;;;18.50;;
6642;SDS011;3357;48.050;7.800;2022-09-01T07:01:09;30.07;;;17.87;;
6642;SDS011;3357;48.050;7.800;2022-09-01T07:03:39;23.47;;;16.50;;
6642;SDS011;3357;48.050;7.800;2022-09-01T07:06:05;19.90;;;15.60;;
6642;SDS011;3357;48.050;7.800;2022-09-01T07:08:31;25.17;;;16.63;;
6642;SDS011;3357;48.050;7.800;2022-09-01T07:11:04;30.50;;;16.40;;
6642;SDS011;3357;48.050;7.800;2022-09-01T07:13:31;27.13;;;13.97;;
6642;SDS011;3357;48.050;7.800;2022-09-01T07:15:58;21.13;;;15.47;;
6642;SDS011;3357;48.050;7.800;2022-09-01T07:18:24;20.77;;;15.77;;
6642;SDS011;3357;48.050;7.800;2022-09-01T07:20:51;21.90;;;15.30;;
6642;SDS011;3357;48.050;7.800;2022-09-01T07:23:17;23.33;;;15.83;;
6642;SDS011;3357;48.050;7.800;2022-09-01T07:25:48;22.10;;;13.80;;
6642;SDS011;3357;48.050;7.800;2022-09-01T07:28:19;23.20;;;15.77;;
6642;SDS011;3357;48.050;7.800;2022-09-01T07:30:46;21.30;;;15.97;;
6642;SDS011;3357;48.050;7.800;2022-09-01T07:33:13;23.70;;;17.43;;
6642;SDS011;3357;48.050;7.800;2022-09-01T07:35:41;23.70;;;17.70;;
6642;SDS011;3357;48.050;7.800;2022-09-01T07:38:07;20.73;;;15.17;;
6642;SDS011;3357;48.050;7.800;2022-09-01T07:40:37;19.60;;;15.70;;
6642;SDS011;3357;48.050;7.800;2022-09-01T07:43:08;24.40;;;17.50;;
6642;SDS011;3357;48.050;7.800;2022-09-01T07:45:42;27.37;;;16.77;;
6642;SDS011;3357;48.050;7.800;2022-09-01T07:48:10;20.77;;;16.10;;
6642;SDS011;3357;48.050;7.800;2022-09-01T07:50:39;28.23;;;15.30;;
6642;SDS011;3357;48.050;7.800;2022-09-01T07:53:08;20.80;;;16.67;;
6642;SDS011;3357;48.050;7.800;2022-09-01T07:55:38;19.40;;;15.00;;
6642;SDS011;3357;48.050;7.800;2022-09-01T07:58:05;17.27;;;14.00;;
6642;SDS011;3357;48.050;7.800;2022-09-01T08:00:30;16.90;;;12.93;;
6642;SDS011;3357;48.050;7.800;2022-09-01T08:02:57;17.83;;;12.97;;
6642;SDS011;3357;48.050;7.800;2022-09-01T08:05:23;17.83;;;11.60;;
6642;SDS011;3357;48.050;7.800;2022-09-01T08:07:51;14.20;;;11.57;;
6642;SDS011;3357;48.050;7.800;2022-09-01T08:10:17;14.23;;;11.50;;
6642;SDS011;3357;48.050;7.800;2022-09-01T08:12:42;16.30;;;11.50;;
6642;SDS011;3357;48.050;7.800;2022-09-01T08:15:08;14.30;;;10.90;;
6642;SDS011;3357;48.050;7.800;2022-09-01T08:17:35;14.67;;;11.30;;
6642;SDS011;3357;48.050;7.800;2022-09-01T08:20:01;16.00;;;11.77;;
6642;SDS011;3357;48.050;7.800;2022-09-01T08:22:26;14.40;;;10.80;;
6642;SDS011;3357;48.050;7.800;2022-09-01T08:24:52;11.77;;;9.90;;
6642;SDS011;3357;48.050;7.800;2022-09-01T08:27:17;17.30;;;11.20;;
6642;SDS011;3357;48.050;7.800;2022-09-01T08:29:42;11.57;;;9.67;;
6642;SDS011;3357;48.050;7.800;2022-09-01T08:32:08;14.47;;;9.47;;
6642;SDS011;3357;48.050;7.800;2022-09-01T08:34:35;14.87;;;10.87;;
6642;SDS011;3357;48.050;7.800;2022-09-01T08:37:01;17.20;;;11.83;;
6642;SDS011;3357;48.050;7.800;2022-09-01T08:39:27;16.53;;;11.87;;
6642;SDS011;3357;48.050;7.800;2022-09-01T08:42:27;13.07;;;10.47;;
6642;SDS011;3357;48.050;7.800;2022-09-01T08:45:04;14.90;;;11.40;;
6642;SDS011;3357;48.050;7.800;2022-09-01T08:47:36;14.70;;;10.23;;
6642;SDS011;3357;48.050;7.800;2022-09-01T08:50:03;12.17;;;9.87;;
6642;SDS011;3357;48.050;7.800;2022-09-01T08:55:11;12.27;;;10.63;;
6642;SDS011;3357;48.050;7.800;2022-09-01T08:57:42;15.90;;;9.50;;
6642;SDS011;3357;48.050;7.800;2022-09-01T09:00:10;15.77;;;10.10;;
6642;SDS011;3357;48.050;7.800;2022-09-01T09:10:59;12.40;;;10.30;;
6642;SDS011;3357;48.050;7.800;2022-09-01T09:16:20;13.90;;;11.00;;
6642;SDS011;3357;48.050;7.800;2022-09-01T09:21:29;11.03;;;8.80;;
6642;SDS011;3357;48.050;7.800;2022-09-01T09:26:54;11.63;;;9.90;;
6642;SDS011;3357;48.050;7.800;2022-09-01T09:29:21;15.13;;;10.40;;
6642;SDS011;3357;48.050;7.800;2022-09-01T09:31:47;12.30;;;9.97;;
6642;SDS011;3357;48.050;7.800;2022-09-01T09:36:42;11.60;;;9.67;;
6642;SDS011;3357;48.050;7.800;2022-09-01T09:39:13;10.37;;;8.70;;
6642;SDS011;3357;48.050;7.800;2022-09-01T09:41:40;12.80;;;9.57;;
6642;SDS011;3357;48.050;7.800;2022-09-01T09:44:18;9.83;;;8.00;;
6642;SDS011;3357;48.050;7.800;2022-09-01T09:46:54;12.33;;;7.80;;
6642;SDS011;3357;48.050;7.800;2022-09-01T09:49:27;10.60;;;7.60;;
6642;SDS011;3357;48.050;7.800;2022-09-01T09:51:57;7.83;;;7.10;;
6642;SDS011;3357;48.050;7.800;2022-09-01T09:54:29;10.53;;;7.50;;
6642;SDS011;3357;48.050;7.800;2022-09-01T09:59:36;7.43;;;6.73;;
6642;SDS011;3357;48.050;7.800;2022-09-01T10:05:01;7.30;;;6.60;;
6642;SDS011;3357;48.050;7.800;2022-09-01T10:07:51;7.27;;;6.23;;
6642;SDS011;3357;48.050;7.800;2022-09-01T10:10:25;5.40;;;4.90;;
6642;SDS011;3357;48.050;7.800;2022-09-01T10:12:53;7.03;;;6.00;;
6642;SDS011;3357;48.050;7.800;2022-09-01T10:15:20;22.60;;;16.17;;
6642;SDS011;3357;48.050;7.800;2022-09-01T10:17:47;7.50;;;5.50;;
6642;SDS011;3357;48.050;7.800;2022-09-01T10:20:16;6.47;;;5.60;;
6642;SDS011;3357;48.050;7.800;2022-09-01T10:22:45;7.93;;;6.40;;
6642;SDS011;3357;48.050;7.800;2022-09-01T10:28:16;5.87;;;5.27;;
6642;SDS011;3357;48.050;7.800;2022-09-01T10:30:45;6.10;;;4.77;;
6642;SDS011;3357;48.050;7.800;2022-09-01T10:33:12;4.47;;;4.10;;
6642;SDS011;3357;48.050;7.800;2022-09-01T10:35:40;4.80;;;4.40;;
6642;SDS011;3357;48.050;7.800;2022-09-01T10:38:09;7.20;;;4.33;;
6642;SDS011;3357;48.050;7.800;2022-09-01T10:40:43;4.80;;;4.50;;
6642;SDS011;3357;48.050;7.800;2022-09-01T10:45:48;4.77;;;4.40;;
6642;SDS011;3357;48.050;7.800;2022-09-01T10:50:45;3.63;;;3.43;;
6642;SDS011;3357;48.050;7.800;2022-09-01T10:56:08;4.10;;;3.80;;
6642;SDS011;3357;48.050;7.800;2022-09-01T11:04:06;3.60;;;3.40;;
6642;SDS011;3357;48.050;7.800;2022-09-01T11:09:17;4.67;;;4.30;;
6642;SDS011;3357;48.050;7.800;2022-09-01T11:14:20;5.80;;;5.30;;
6642;SDS011;3357;48.050;7.800;2022-09-01T11:24:46;4.40;;;4.07;;
6642;SDS011;3357;48.050;7.800;2022-09-01T11:35:44;4.93;;;4.60;;
6642;SDS011;3357;48.050;7.800;2022-09-01T11:38:11;3.50;;;3.30;;
6642;SDS011;3357;48.050;7.800;2022-09-01T11:40:39;5.17;;;4.60;;
6642;SDS011;3357;48.050;7.800;2022-09-01T11:43:09;5.03;;;4.03;;
6642;SDS011;3357;48.050;7.800;2022-09-01T11:48:31;4.30;;;3.73;;
6642;SDS011;3357;48.050;7.800;2022-09-01T11:50:57;3.93;;;3.63;;
6642;SDS011;3357;48.050;7.800;2022-09-01T11:53:24;3.20;;;3.00;;
6642;SDS011;3357;48.050;7.800;2022-09-01T11:55:50;3.63;;;3.07;;
6642;SDS011;3357;48.050;7.800;2022-09-01T12:00:51;2.90;;;2.77;;
6642;SDS011;3357;48.050;7.800;2022-09-01T12:03:27;6.50;;;2.80;;
6642;SDS011;3357;48.050;7.800;2022-09-01T12:05:57;2.80;;;2.60;;
6642;SDS011;3357;48.050;7.800;2022-09-01T12:08:26;3.13;;;2.93;;
6642;SDS011;3357;48.050;7.800;2022-09-01T12:11:08;7.33;;;3.60;;
6642;SDS011;3357;48.050;7.800;2022-09-01T12:13:35;6.00;;;5.00;;
6642;SDS011;3357;48.050;7.800;2022-09-01T12:16:06;2.70;;;2.50;;
6642;SDS011;3357;48.050;7.800;2022-09-01T12:18:34;10.93;;;8.10;;
6642;SDS011;3357;48.050;7.800;2022-09-01T12:21:05;8.70;;;6.10;;
6642;SDS011;3357;48.050;7.800;2022-09-01T12:28:32;5.80;;;3.93;;
6642;SDS011;3357;48.050;7.800;2022-09-01T12:30:59;9.87;;;4.60;;
6642;SDS011;3357;48.050;7.800;2022-09-01T12:33:26;7.53;;;6.40;;
6642;SDS011;3357;48.050;7.800;2022-09-01T12:36:11;2.80;;;2.60;;
6642;SDS011;3357;48.050;7.800;2022-09-01T12:39:18;2.90;;;2.63;;
6642;SDS011;3357;48.050;7.800;2022-09-01T12:41:46;3.33;;;3.13;;
6642;SDS011;3357;48.050;7.800;2022-09-01T12:47:07;2.57;;;2.37;;
6642;SDS011;3357;48.050;7.800;2022-09-01T12:49:39;2.77;;;2.20;;
6642;SDS011;3357;48.050;7.800;2022-09-01T12:52:10;3.77;;;2.83;;
6642;SDS011;3357;48.050;7.800;2022-09-01T12:54:38;2.00;;;1.90;;
6642;SDS011;3357;48.050;7.800;2022-09-01T12:57:04;2.20;;;2.00;;
6642;SDS011;3357;48.050;7.800;2022-09-01T12:59:29;1.80;;;1.70;;
6642;SDS011;3357;48.050;7.800;2022-09-01T13:01:55;1.83;;;1.73;;
6642;SDS011;3357;48.050;7.800;2022-09-01T13:06:46;1.90;;;1.80;;
6642;SDS011;3357;48.050;7.800;2022-09-01T13:09:12;3.07;;;2.87;;
6642;SDS011;3357;48.050;7.800;2022-09-01T13:11:37;2.40;;;2.30;;
6642;SDS011;3357;48.050;7.800;2022-09-01T13:14:03;2.40;;;2.30;;
6642;SDS011;3357;48.050;7.800;2022-09-01T13:16:28;2.60;;;2.40;;
6642;SDS011;3357;48.050;7.800;2022-09-01T13:18:54;2.00;;;1.90;;
6642;SDS011;3357;48.050;7.800;2022-09-01T13:21:19;2.10;;;2.00;;
6642;SDS011;3357;48.050;7.800;2022-09-01T13:23:45;2.60;;;2.50;;
6642;SDS011;3357;48.050;7.800;2022-09-01T13:26:11;4.33;;;2.50;;
6642;SDS011;3357;48.050;7.800;2022-09-01T13:28:36;2.30;;;2.20;;
6642;SDS011;3357;48.050;7.800;2022-09-01T13:31:02;3.00;;;1.73;;
6642;SDS011;3357;48.050;7.800;2022-09-01T13:33:29;1.60;;;1.50;;
6642;SDS011;3357;48.050;7.800;2022-09-01T13:35:55;1.70;;;1.60;;
6642;SDS011;3357;48.050;7.800;2022-09-01T13:38:20;1.50;;;1.50;;
6642;SDS011;3357;48.050;7.800;2022-09-01T13:40:46;1.80;;;1.70;;
6642;SDS011;3357;48.050;7.800;2022-09-01T13:43:13;2.00;;;1.67;;
6642;SDS011;3357;48.050;7.800;2022-09-01T13:45:39;2.20;;;1.70;;
6642;SDS011;3357;48.050;7.800;2022-09-01T13:48:06;2.07;;;1.97;;
6642;SDS011;3357;48.050;7.800;2022-09-01T13:50:31;1.33;;;1.33;;
6642;SDS011;3357;48.050;7.800;2022-09-01T13:52:57;1.40;;;1.30;;
6642;SDS011;3357;48.050;7.800;2022-09-01T13:55:26;1.50;;;1.40;;
6642;SDS011;3357;48.050;7.800;2022-09-01T13:57:56;3.17;;;1.50;;
6642;SDS011;3357;48.050;7.800;2022-09-01T14:00:23;1.50;;;1.50;;
6642;SDS011;3357;48.050;7.800;2022-09-01T14:02:51;2.37;;;1.60;;
6642;SDS011;3357;48.050;7.800;2022-09-01T14:05:21;1.50;;;1.40;;
6642;SDS011;3357;48.050;7.800;2022-09-01T14:07:48;1.60;;;1.50;;
6642;SDS011;3357;48.050;7.800;2022-09-01T14:10:14;1.87;;;1.20;;
6642;SDS011;3357;48.050;7.800;2022-09-01T14:12:41;1.40;;;1.30;;
6642;SDS011;3357;48.050;7.800;2022-09-01T14:15:08;1.80;;;1.70;;
6642;SDS011;3357;48.050;7.800;2022-09-01T14:17:35;1.30;;;1.20;;
6642;SDS011;3357;48.050;7.800;2022-09-01T14:20:01;1.47;;;1.37;;
6642;SDS011;3357;48.050;7.800;2022-09-01T14:22:28;1.40;;;1.30;;
6642;SDS011;3357;48.050;7.800;2022-09-01T14:24:54;1.73;;;1.63;;
6642;SDS011;3357;48.050;7.800;2022-09-01T14:27:19;1.50;;;1.40;;
6642;SDS011;3357;48.050;7.800;2022-09-01T14:29:47;1.70;;;1.60;;
6642;SDS011;3357;48.050;7.800;2022-09-01T14:32:14;1.80;;;1.70;;
6642;SDS011;3357;48.050;7.800;2022-09-01T14:34:40;1.60;;;1.50;;
6642;SDS011;3357;48.050;7.800;2022-09-01T14:37:06;2.60;;;2.40;;
6642;SDS011;3357;48.050;7.800;2022-09-01T14:39:31;4.63;;;2.30;;
6642;SDS011;3357;48.050;7.800;2022-09-01T14:41:57;1.90;;;1.80;;
6642;SDS011;3357;48.050;7.800;2022-09-01T14:44:23;1.50;;;1.40;;
6642;SDS011;3357;48.050;7.800;2022-09-01T14:46:48;1.43;;;1.33;;
6642;SDS011;3357;48.050;7.800;2022-09-01T14:49:14;1.97;;;1.30;;
6642;SDS011;3357;48.050;7.800;2022-09-01T14:51:40;1.67;;;1.57;;
6642;SDS011;3357;48.050;7.800;2022-09-01T14:54:06;1.77;;;1.50;;
6642;SDS011;3357;48.050;7.800;2022-09-01T14:56:31;1.60;;;1.50;;
6642;SDS011;3357;48.050;7.800;2022-09-01T14:58:56;1.37;;;1.30;;
6642;SDS011;3357;48.050;7.800;2022-09-01T15:01:24;1.43;;;1.30;;
6642;SDS011;3357;48.050;7.800;2022-09-01T15:03:51;2.40;;;1.40;;
6642;SDS011;3357;48.050;7.800;2022-09-01T15:06:17;1.30;;;1.20;;
6642;SDS011;3357;48.050;7.800;2022-09-01T15:08:44;1.17;;;1.07;;
6642;SDS011;3357;48.050;7.800;2022-09-01T15:11:10;1.50;;;1.40;;
6642;SDS011;3357;48.050;7.800;2022-09-01T15:13:40;1.60;;;1.50;;
6642;SDS011;3357;48.050;7.800;2022-09-01T15:16:16;5.60;;;1.50;;
6642;SDS011;3357;48.050;7.800;2022-09-01T15:18:43;1.20;;;1.10;;
6642;SDS011;3357;48.050;7.800;2022-09-01T15:23:46;1.63;;;1.37;;
6642;SDS011;3357;48.050;7.800;2022-09-01T15:26:13;1.30;;;1.20;;
6642;SDS011;3357;48.050;7.800;2022-09-01T15:28:41;3.53;;;1.40;;
6642;SDS011;3357;48.050;7.800;2022-09-01T15:31:09;1.20;;;1.10;;
6642;SDS011;3357;48.050;7.800;2022-09-01T15:33:36;1.53;;;1.33;;
6642;SDS011;3357;48.050;7.800;2022-09-01T15:36:02;1.30;;;1.30;;
6642;SDS011;3357;48.050;7.800;2022-09-01T15:38:28;1.50;;;1.40;;
6642;SDS011;3357;48.050;7.800;2022-09-01T15:40:53;1.43;;;1.33;;
6642;SDS011;3357;48.050;7.800;2022-09-01T15:43:26;1.47;;;1.40;;
6642;SDS011;3357;48.050;7.800;2022-09-01T15:45:51;1.17;;;1.17;;
6642;SDS011;3357;48.050;7.800;2022-09-01T15:48:17;1.23;;;1.23;;
6642;SDS011;3357;48.050;7.800;2022-09-01T15:50:42;1.40;;;1.30;;
6642;SDS011;3357;48.050;7.800;2022-09-01T15:53:08;1.10;;;1.10;;
6642;SDS011;3357;48.050;7.800;2022-09-01T15:55:38;1.80;;;1.40;;
6642;SDS011;3357;48.050;7.800;2022-09-01T15:58:08;1.20;;;1.10;;
6642;SDS011;3357;48.050;7.800;2022-09-01T16:00:35;1.50;;;1.40;;
6642;SDS011;3357;48.050;7.800;2022-09-01T16:03:00;1.60;;;1.50;;
6642;SDS011;3357;48.050;7.800;2022-09-01T16:05:27;2.83;;;1.20;;
6642;SDS011;3357;48.050;7.800;2022-09-01T16:07:53;1.50;;;1.40;;
6642;SDS011;3357;48.050;7.800;2022-09-01T16:10:19;2.40;;;1.30;;
6642;SDS011;3357;48.050;7.800;2022-09-01T16:12:45;1.40;;;1.40;;
6642;SDS011;3357;48.050;7.800;2022-09-01T16:15:13;2.30;;;1.40;;
6642;SDS011;3357;48.050;7.800;2022-09-01T16:17:50;5.13;;;1.50;;
6642;SDS011;3357;48.050;7.800;2022-09-01T16:20:57;1.23;;;1.23;;
6642;SDS011;3357;48.050;7.800;2022-09-01T16:23:24;4.23;;;1.80;;
6642;SDS011;3357;48.050;7.800;2022-09-01T16:25:57;1.20;;;1.20;;
6642;SDS011;3357;48.050;7.800;2022-09-01T16:28:31;1.30;;;1.30;;
6642;SDS011;3357;48.050;7.800;2022-09-01T16:31:21;1.73;;;1.63;;
6642;SDS011;3357;48.050;7.800;2022-09-01T16:33:49;5.03;;;1.63;;
6642;SDS011;3357;48.050;7.800;2022-09-01T16:38:54;1.20;;;1.20;;